sensor_id;sensor_type;location;lat;lon;timestamp;P1;durP1;ratioP1;P2;durP2;ratioP2
76073;SDS011;64776;42.636;24.358;2023-08-17T00:01:46;13.05;;;6.97;;
76073;SDS011;64776;42.636;24.358;2023-08-17T00:04:47;12.55;;;7.65;;
76073;SDS011;64776;42.636;24.358;2023-08-17T00:07:48;11.95;;;7.15;;
76073;SDS011;64776;42.636;24.358;2023-08-17T00:10:50;14.40;;;6.82;;
76073;SDS011;64776;42.636;24.358;2023-08-17T00:13:50;14.07;;;7.20;;
76073;SDS011;64776;42.636;24.358;2023-08-17T00:16:51;13.07;;;7.55;;
76073;SDS011;64776;42.636;24.358;2023-08-17T00:19:52;14.75;;;7.15;;
76073;SDS011;64776;42.636;24.358;2023-08-17T00:22:53;13.65;;;7.20;;
76073;SDS011;64776;42.636;24.358;2023-08-17T00:25:55;16.60;;;7.65;;
76073;SDS011;64776;42.636;24.358;2023-08-17T00:28:56;13.25;;;6.65;;
76073;SDS011;64776;42.636;24.358;2023-08-17T00:31:56;14.77;;;8.13;;
76073;SDS011;64776;42.636;24.358;2023-08-17T00:34:57;13.27;;;6.63;;
76073;SDS011;64776;42.636;24.358;2023-08-17T00:37:59;11.05;;;6.45;;
76073;SDS011;64776;42.636;24.358;2023-08-17T00:41:01;12.40;;;7.05;;
76073;SDS011;64776;42.636;24.358;2023-08-17T00:44:02;13.25;;;6.70;;
76073;SDS011;64776;42.636;24.358;2023-08-17T00:47:03;11.25;;;7.00;;
76073;SDS011;64776;42.636;24.358;2023-08-17T00:50:05;10.15;;;5.80;;
76073;SDS011;64776;42.636;24.358;2023-08-17T00:53:06;12.10;;;6.90;;
76073;SDS011;64776;42.636;24.358;2023-08-17T00:56:09;12.23;;;6.63;;
76073;SDS011;64776;42.636;24.358;2023-08-17T00:59:10;14.43;;;8.32;;
76073;SDS011;64776;42.636;24.358;2023-08-17T01:02:11;10.55;;;6.10;;
76073;SDS011;64776;42.636;24.358;2023-08-17T01:05:12;13.38;;;7.68;;
76073;SDS011;64776;42.636;24.358;2023-08-17T01:08:13;11.15;;;5.85;;
76073;SDS011;64776;42.636;24.358;2023-08-17T01:11:17;12.70;;;6.07;;
76073;SDS011;64776;42.636;24.358;2023-08-17T01:14:27;11.52;;;6.00;;
76073;SDS011;64776;42.636;24.358;2023-08-17T01:17:36;10.65;;;5.75;;
76073;SDS011;64776;42.636;24.358;2023-08-17T01:20:39;12.30;;;6.53;;
76073;SDS011;64776;42.636;24.358;2023-08-17T01:23:42;13.02;;;6.68;;
76073;SDS011;64776;42.636;24.358;2023-08-17T01:26:44;11.93;;;6.93;;
76073;SDS011;64776;42.636;24.358;2023-08-17T01:29:45;10.60;;;5.93;;
76073;SDS011;64776;42.636;24.358;2023-08-17T01:32:48;11.13;;;6.03;;
76073;SDS011;64776;42.636;24.358;2023-08-17T01:35:56;11.80;;;5.97;;
76073;SDS011;64776;42.636;24.358;2023-08-17T01:39:05;10.95;;;5.88;;
76073;SDS011;64776;42.636;24.358;2023-08-17T01:42:08;13.57;;;6.53;;
76073;SDS011;64776;42.636;24.358;2023-08-17T01:45:11;12.48;;;6.68;;
76073;SDS011;64776;42.636;24.358;2023-08-17T01:48:12;13.40;;;6.22;;
76073;SDS011;64776;42.636;24.358;2023-08-17T01:51:15;17.05;;;7.95;;
76073;SDS011;64776;42.636;24.358;2023-08-17T01:57:19;12.23;;;6.53;;
76073;SDS011;64776;42.636;24.358;2023-08-17T02:00:20;13.50;;;6.35;;
76073;SDS011;64776;42.636;24.358;2023-08-17T02:03:21;12.88;;;6.03;;
76073;SDS011;64776;42.636;24.358;2023-08-17T02:06:21;10.70;;;5.60;;
76073;SDS011;64776;42.636;24.358;2023-08-17T02:09:24;12.45;;;6.45;;
76073;SDS011;64776;42.636;24.358;2023-08-17T02:12:24;12.05;;;6.75;;
76073;SDS011;64776;42.636;24.358;2023-08-17T02:15:25;15.38;;;6.27;;
76073;SDS011;64776;42.636;24.358;2023-08-17T02:18:26;12.43;;;6.15;;
76073;SDS011;64776;42.636;24.358;2023-08-17T02:21:27;10.27;;;5.32;;
76073;SDS011;64776;42.636;24.358;2023-08-17T02:24:29;14.98;;;6.65;;
76073;SDS011;64776;42.636;24.358;2023-08-17T02:27:30;10.70;;;5.32;;
76073;SDS011;64776;42.636;24.358;2023-08-17T02:30:31;11.50;;;5.15;;
76073;SDS011;64776;42.636;24.358;2023-08-17T02:33:31;14.43;;;6.10;;
76073;SDS011;64776;42.636;24.358;2023-08-17T02:36:32;11.50;;;7.38;;
76073;SDS011;64776;42.636;24.358;2023-08-17T02:39:34;15.52;;;5.80;;
76073;SDS011;64776;42.636;24.358;2023-08-17T02:42:35;10.60;;;5.45;;
76073;SDS011;64776;42.636;24.358;2023-08-17T02:45:36;20.40;;;5.90;;
76073;SDS011;64776;42.636;24.358;2023-08-17T02:48:38;10.75;;;5.07;;
76073;SDS011;64776;42.636;24.358;2023-08-17T02:51:38;10.57;;;5.20;;
76073;SDS011;64776;42.636;24.358;2023-08-17T02:54:40;12.15;;;5.18;;
76073;SDS011;64776;42.636;24.358;2023-08-17T02:57:41;10.18;;;4.72;;
76073;SDS011;64776;42.636;24.358;2023-08-17T03:00:42;11.35;;;5.50;;
76073;SDS011;64776;42.636;24.358;2023-08-17T03:03:43;10.75;;;5.15;;
76073;SDS011;64776;42.636;24.358;2023-08-17T03:06:43;11.23;;;4.78;;
76073;SDS011;64776;42.636;24.358;2023-08-17T03:09:46;8.80;;;4.72;;
76073;SDS011;64776;42.636;24.358;2023-08-17T03:12:46;10.23;;;4.90;;
76073;SDS011;64776;42.636;24.358;2023-08-17T03:15:47;9.75;;;4.30;;
76073;SDS011;64776;42.636;24.358;2023-08-17T03:18:48;9.90;;;4.97;;
76073;SDS011;64776;42.636;24.358;2023-08-17T03:21:49;9.60;;;5.30;;
76073;SDS011;64776;42.636;24.358;2023-08-17T03:24:51;10.02;;;5.30;;
76073;SDS011;64776;42.636;24.358;2023-08-17T03:27:55;11.10;;;5.45;;
76073;SDS011;64776;42.636;24.358;2023-08-17T03:30:56;9.23;;;4.93;;
76073;SDS011;64776;42.636;24.358;2023-08-17T03:33:57;10.00;;;5.03;;
76073;SDS011;64776;42.636;24.358;2023-08-17T03:36:58;8.93;;;4.47;;
76073;SDS011;64776;42.636;24.358;2023-08-17T03:40:00;10.38;;;4.18;;
76073;SDS011;64776;42.636;24.358;2023-08-17T03:43:00;8.82;;;4.20;;
76073;SDS011;64776;42.636;24.358;2023-08-17T03:46:01;8.98;;;4.57;;
76073;SDS011;64776;42.636;24.358;2023-08-17T03:49:04;13.48;;;4.88;;
76073;SDS011;64776;42.636;24.358;2023-08-17T03:52:05;9.52;;;4.50;;
76073;SDS011;64776;42.636;24.358;2023-08-17T03:55:07;17.33;;;7.07;;
76073;SDS011;64776;42.636;24.358;2023-08-17T03:58:09;17.20;;;9.00;;
76073;SDS011;64776;42.636;24.358;2023-08-17T04:01:10;15.70;;;8.10;;
76073;SDS011;64776;42.636;24.358;2023-08-17T04:04:11;10.45;;;6.30;;
76073;SDS011;64776;42.636;24.358;2023-08-17T04:07:14;15.05;;;6.32;;
76073;SDS011;64776;42.636;24.358;2023-08-17T04:10:22;12.57;;;5.50;;
76073;SDS011;64776;42.636;24.358;2023-08-17T04:13:23;11.38;;;5.78;;
76073;SDS011;64776;42.636;24.358;2023-08-17T04:16:24;12.70;;;6.32;;
76073;SDS011;64776;42.636;24.358;2023-08-17T04:19:24;10.30;;;5.45;;
76073;SDS011;64776;42.636;24.358;2023-08-17T04:22:25;9.73;;;4.75;;
76073;SDS011;64776;42.636;24.358;2023-08-17T04:25:27;10.48;;;4.85;;
76073;SDS011;64776;42.636;24.358;2023-08-17T04:28:28;11.05;;;5.80;;
76073;SDS011;64776;42.636;24.358;2023-08-17T04:31:29;11.63;;;5.57;;
76073;SDS011;64776;42.636;24.358;2023-08-17T04:34:30;11.75;;;6.07;;
76073;SDS011;64776;42.636;24.358;2023-08-17T04:37:30;12.10;;;5.57;;
76073;SDS011;64776;42.636;24.358;2023-08-17T04:40:32;10.80;;;5.25;;
76073;SDS011;64776;42.636;24.358;2023-08-17T04:43:33;13.38;;;6.03;;
76073;SDS011;64776;42.636;24.358;2023-08-17T04:46:34;14.38;;;6.78;;
76073;SDS011;64776;42.636;24.358;2023-08-17T04:49:35;12.32;;;5.50;;
76073;SDS011;64776;42.636;24.358;2023-08-17T04:52:36;9.27;;;4.60;;
76073;SDS011;64776;42.636;24.358;2023-08-17T04:55:38;12.55;;;6.68;;
76073;SDS011;64776;42.636;24.358;2023-08-17T04:58:39;13.13;;;5.65;;
76073;SDS011;64776;42.636;24.358;2023-08-17T05:01:40;12.13;;;5.93;;
76073;SDS011;64776;42.636;24.358;2023-08-17T05:04:41;16.52;;;9.88;;
76073;SDS011;64776;42.636;24.358;2023-08-17T05:07:41;24.35;;;16.45;;
76073;SDS011;64776;42.636;24.358;2023-08-17T05:10:44;33.63;;;19.70;;
76073;SDS011;64776;42.636;24.358;2023-08-17T05:13:45;26.70;;;13.30;;
76073;SDS011;64776;42.636;24.358;2023-08-17T05:16:45;23.30;;;11.02;;
76073;SDS011;64776;42.636;24.358;2023-08-17T05:19:46;16.83;;;8.30;;
76073;SDS011;64776;42.636;24.358;2023-08-17T05:22:47;14.65;;;7.55;;
76073;SDS011;64776;42.636;24.358;2023-08-17T05:25:49;16.98;;;8.25;;
76073;SDS011;64776;42.636;24.358;2023-08-17T05:28:50;20.75;;;13.38;;
76073;SDS011;64776;42.636;24.358;2023-08-17T05:31:51;30.17;;;18.15;;
76073;SDS011;64776;42.636;24.358;2023-08-17T05:34:51;21.33;;;11.98;;
76073;SDS011;64776;42.636;24.358;2023-08-17T05:37:52;18.73;;;9.95;;
76073;SDS011;64776;42.636;24.358;2023-08-17T05:40:58;18.88;;;9.90;;
76073;SDS011;64776;42.636;24.358;2023-08-17T05:43:59;15.63;;;7.47;;
76073;SDS011;64776;42.636;24.358;2023-08-17T05:47:00;15.00;;;7.82;;
76073;SDS011;64776;42.636;24.358;2023-08-17T05:50:01;15.05;;;8.93;;
76073;SDS011;64776;42.636;24.358;2023-08-17T05:53:02;13.32;;;7.13;;
76073;SDS011;64776;42.636;24.358;2023-08-17T05:56:04;13.23;;;6.20;;
76073;SDS011;64776;42.636;24.358;2023-08-17T05:59:05;14.90;;;7.65;;
76073;SDS011;64776;42.636;24.358;2023-08-17T06:02:06;14.02;;;8.07;;
76073;SDS011;64776;42.636;24.358;2023-08-17T06:05:07;16.95;;;8.65;;
76073;SDS011;64776;42.636;24.358;2023-08-17T06:08:08;16.23;;;8.48;;
76073;SDS011;64776;42.636;24.358;2023-08-17T06:11:19;14.38;;;7.67;;
76073;SDS011;64776;42.636;24.358;2023-08-17T06:14:20;14.48;;;7.40;;
76073;SDS011;64776;42.636;24.358;2023-08-17T06:17:21;16.90;;;8.65;;
76073;SDS011;64776;42.636;24.358;2023-08-17T06:20:29;17.33;;;8.70;;
76073;SDS011;64776;42.636;24.358;2023-08-17T06:27:29;11.95;;;6.13;;
76073;SDS011;64776;42.636;24.358;2023-08-17T06:30:30;16.13;;;5.50;;
76073;SDS011;64776;42.636;24.358;2023-08-17T06:33:31;7.55;;;3.10;;
76073;SDS011;64776;42.636;24.358;2023-08-17T06:36:32;11.18;;;4.32;;
76073;SDS011;64776;42.636;24.358;2023-08-17T06:39:33;11.25;;;4.45;;
76073;SDS011;64776;42.636;24.358;2023-08-17T06:42:35;10.05;;;2.83;;
76073;SDS011;64776;42.636;24.358;2023-08-17T06:45:36;12.48;;;4.25;;
76073;SDS011;64776;42.636;24.358;2023-08-17T06:48:36;9.95;;;3.45;;
76073;SDS011;64776;42.636;24.358;2023-08-17T06:51:37;14.00;;;5.72;;
76073;SDS011;64776;42.636;24.358;2023-08-17T06:54:38;36.10;;;14.98;;
76073;SDS011;64776;42.636;24.358;2023-08-17T06:57:40;5.47;;;2.42;;
76073;SDS011;64776;42.636;24.358;2023-08-17T07:00:41;7.70;;;3.35;;
76073;SDS011;64776;42.636;24.358;2023-08-17T07:03:42;3.67;;;1.45;;
76073;SDS011;64776;42.636;24.358;2023-08-17T07:06:43;4.28;;;1.70;;
76073;SDS011;64776;42.636;24.358;2023-08-17T07:09:43;7.07;;;2.42;;
76073;SDS011;64776;42.636;24.358;2023-08-17T07:12:46;8.77;;;1.52;;
76073;SDS011;64776;42.636;24.358;2023-08-17T07:15:46;5.10;;;1.98;;
76073;SDS011;64776;42.636;24.358;2023-08-17T07:18:47;8.13;;;2.30;;
76073;SDS011;64776;42.636;24.358;2023-08-17T07:21:48;5.50;;;1.40;;
76073;SDS011;64776;42.636;24.358;2023-08-17T07:24:49;6.07;;;1.50;;
76073;SDS011;64776;42.636;24.358;2023-08-17T07:27:51;11.60;;;2.15;;
76073;SDS011;64776;42.636;24.358;2023-08-17T07:30:52;4.47;;;1.17;;
76073;SDS011;64776;42.636;24.358;2023-08-17T07:33:52;5.70;;;1.25;;
76073;SDS011;64776;42.636;24.358;2023-08-17T07:36:53;6.18;;;2.20;;
76073;SDS011;64776;42.636;24.358;2023-08-17T07:39:54;5.53;;;1.95;;
76073;SDS011;64776;42.636;24.358;2023-08-17T07:42:56;5.00;;;1.15;;
76073;SDS011;64776;42.636;24.358;2023-08-17T07:45:57;8.13;;;2.75;;
76073;SDS011;64776;42.636;24.358;2023-08-17T07:48:58;6.70;;;1.42;;
76073;SDS011;64776;42.636;24.358;2023-08-17T07:51:59;4.13;;;1.00;;
76073;SDS011;64776;42.636;24.358;2023-08-17T07:55:00;8.10;;;2.10;;
76073;SDS011;64776;42.636;24.358;2023-08-17T07:58:02;7.90;;;1.67;;
76073;SDS011;64776;42.636;24.358;2023-08-17T08:01:03;3.92;;;1.75;;
76073;SDS011;64776;42.636;24.358;2023-08-17T08:04:04;6.07;;;1.20;;
76073;SDS011;64776;42.636;24.358;2023-08-17T08:07:05;5.50;;;1.45;;
76073;SDS011;64776;42.636;24.358;2023-08-17T08:10:06;7.35;;;1.75;;
76073;SDS011;64776;42.636;24.358;2023-08-17T08:13:09;3.30;;;1.17;;
76073;SDS011;64776;42.636;24.358;2023-08-17T08:16:09;7.20;;;1.35;;
76073;SDS011;64776;42.636;24.358;2023-08-17T08:19:10;3.20;;;0.80;;
76073;SDS011;64776;42.636;24.358;2023-08-17T08:22:11;3.80;;;0.88;;
76073;SDS011;64776;42.636;24.358;2023-08-17T08:25:12;4.82;;;0.77;;
76073;SDS011;64776;42.636;24.358;2023-08-17T08:28:14;6.43;;;1.42;;
76073;SDS011;64776;42.636;24.358;2023-08-17T08:31:14;15.30;;;3.30;;
76073;SDS011;64776;42.636;24.358;2023-08-17T08:34:15;8.80;;;1.35;;
76073;SDS011;64776;42.636;24.358;2023-08-17T08:37:16;7.95;;;1.13;;
76073;SDS011;64776;42.636;24.358;2023-08-17T08:40:17;3.75;;;1.08;;
76073;SDS011;64776;42.636;24.358;2023-08-17T08:43:19;10.27;;;2.35;;
76073;SDS011;64776;42.636;24.358;2023-08-17T08:46:20;4.47;;;0.95;;
76073;SDS011;64776;42.636;24.358;2023-08-17T08:49:23;4.32;;;1.15;;
76073;SDS011;64776;42.636;24.358;2023-08-17T08:52:27;4.13;;;1.05;;
76073;SDS011;64776;42.636;24.358;2023-08-17T08:55:34;3.80;;;1.08;;
76073;SDS011;64776;42.636;24.358;2023-08-17T08:58:39;6.43;;;1.05;;
76073;SDS011;64776;42.636;24.358;2023-08-17T09:01:40;4.18;;;0.90;;
76073;SDS011;64776;42.636;24.358;2023-08-17T09:04:42;6.05;;;1.02;;
76073;SDS011;64776;42.636;24.358;2023-08-17T09:07:44;4.28;;;0.93;;
76073;SDS011;64776;42.636;24.358;2023-08-17T09:10:48;2.92;;;0.93;;
76073;SDS011;64776;42.636;24.358;2023-08-17T09:13:51;4.22;;;1.40;;
76073;SDS011;64776;42.636;24.358;2023-08-17T09:16:53;5.47;;;1.33;;
76073;SDS011;64776;42.636;24.358;2023-08-17T09:19:54;5.47;;;1.33;;
76073;SDS011;64776;42.636;24.358;2023-08-17T09:22:54;4.88;;;1.02;;
76073;SDS011;64776;42.636;24.358;2023-08-17T09:25:55;4.28;;;1.42;;
76073;SDS011;64776;42.636;24.358;2023-08-17T09:28:58;3.72;;;1.23;;
76073;SDS011;64776;42.636;24.358;2023-08-17T09:32:03;6.97;;;1.10;;
76073;SDS011;64776;42.636;24.358;2023-08-17T09:35:05;3.33;;;0.70;;
76073;SDS011;64776;42.636;24.358;2023-08-17T09:38:07;4.35;;;1.00;;
76073;SDS011;64776;42.636;24.358;2023-08-17T09:41:08;4.47;;;1.27;;
76073;SDS011;64776;42.636;24.358;2023-08-17T09:44:10;4.40;;;0.90;;
76073;SDS011;64776;42.636;24.358;2023-08-17T09:47:11;4.78;;;1.13;;
76073;SDS011;64776;42.636;24.358;2023-08-17T09:50:12;4.97;;;1.45;;
76073;SDS011;64776;42.636;24.358;2023-08-17T09:53:13;4.38;;;1.38;;
76073;SDS011;64776;42.636;24.358;2023-08-17T09:56:14;2.97;;;0.85;;
76073;SDS011;64776;42.636;24.358;2023-08-17T09:59:17;4.95;;;1.00;;
76073;SDS011;64776;42.636;24.358;2023-08-17T10:02:18;3.10;;;1.00;;
76073;SDS011;64776;42.636;24.358;2023-08-17T10:05:22;2.58;;;0.90;;
76073;SDS011;64776;42.636;24.358;2023-08-17T10:08:23;2.88;;;1.10;;
76073;SDS011;64776;42.636;24.358;2023-08-17T10:11:25;3.40;;;1.00;;
76073;SDS011;64776;42.636;24.358;2023-08-17T10:14:33;4.68;;;1.33;;
76073;SDS011;64776;42.636;24.358;2023-08-17T10:17:40;4.45;;;1.20;;
76073;SDS011;64776;42.636;24.358;2023-08-17T10:20:49;8.73;;;1.50;;
76073;SDS011;64776;42.636;24.358;2023-08-17T10:23:58;4.38;;;1.10;;
76073;SDS011;64776;42.636;24.358;2023-08-17T10:26:59;5.20;;;1.13;;
76073;SDS011;64776;42.636;24.358;2023-08-17T10:30:02;4.82;;;1.10;;
76073;SDS011;64776;42.636;24.358;2023-08-17T10:36:05;5.40;;;1.05;;
76073;SDS011;64776;42.636;24.358;2023-08-17T10:39:19;6.50;;;0.90;;
76073;SDS011;64776;42.636;24.358;2023-08-17T10:42:30;8.00;;;1.30;;
76073;SDS011;64776;42.636;24.358;2023-08-17T10:45:33;3.85;;;0.90;;
76073;SDS011;64776;42.636;24.358;2023-08-17T10:48:34;3.85;;;0.88;;
76073;SDS011;64776;42.636;24.358;2023-08-17T10:51:35;3.33;;;0.90;;
76073;SDS011;64776;42.636;24.358;2023-08-17T10:54:36;3.42;;;1.13;;
76073;SDS011;64776;42.636;24.358;2023-08-17T10:57:38;3.13;;;1.38;;
76073;SDS011;64776;42.636;24.358;2023-08-17T11:00:42;4.07;;;1.40;;
76073;SDS011;64776;42.636;24.358;2023-08-17T11:03:43;3.65;;;1.23;;
76073;SDS011;64776;42.636;24.358;2023-08-17T11:06:44;4.32;;;1.02;;
76073;SDS011;64776;42.636;24.358;2023-08-17T11:09:45;4.55;;;1.10;;
76073;SDS011;64776;42.636;24.358;2023-08-17T11:12:47;3.20;;;0.73;;
76073;SDS011;64776;42.636;24.358;2023-08-17T11:15:49;5.85;;;0.80;;
76073;SDS011;64776;42.636;24.358;2023-08-17T11:18:50;9.27;;;1.30;;
76073;SDS011;64776;42.636;24.358;2023-08-17T11:21:52;3.72;;;1.10;;
76073;SDS011;64776;42.636;24.358;2023-08-17T11:24:53;3.25;;;1.00;;
76073;SDS011;64776;42.636;24.358;2023-08-17T11:27:54;3.75;;;0.93;;
76073;SDS011;64776;42.636;24.358;2023-08-17T11:30:59;4.47;;;1.35;;
76073;SDS011;64776;42.636;24.358;2023-08-17T11:34:01;3.85;;;1.00;;
76073;SDS011;64776;42.636;24.358;2023-08-17T11:37:02;3.25;;;1.08;;
76073;SDS011;64776;42.636;24.358;2023-08-17T11:40:03;4.22;;;1.20;;
76073;SDS011;64776;42.636;24.358;2023-08-17T11:43:04;4.65;;;0.95;;
76073;SDS011;64776;42.636;24.358;2023-08-17T11:46:06;4.05;;;1.10;;
76073;SDS011;64776;42.636;24.358;2023-08-17T11:49:07;3.28;;;0.80;;
76073;SDS011;64776;42.636;24.358;2023-08-17T11:52:09;3.20;;;1.00;;
76073;SDS011;64776;42.636;24.358;2023-08-17T11:55:09;4.53;;;1.23;;
76073;SDS011;64776;42.636;24.358;2023-08-17T11:58:10;4.25;;;1.58;;
76073;SDS011;64776;42.636;24.358;2023-08-17T12:01:12;5.40;;;1.50;;
76073;SDS011;64776;42.636;24.358;2023-08-17T12:04:13;5.15;;;1.17;;
76073;SDS011;64776;42.636;24.358;2023-08-17T12:07:14;4.35;;;1.13;;
76073;SDS011;64776;42.636;24.358;2023-08-17T12:10:15;5.00;;;1.45;;
76073;SDS011;64776;42.636;24.358;2023-08-17T12:13:18;3.35;;;1.17;;
76073;SDS011;64776;42.636;24.358;2023-08-17T12:16:20;5.97;;;1.33;;
76073;SDS011;64776;42.636;24.358;2023-08-17T12:19:24;5.40;;;1.40;;
76073;SDS011;64776;42.636;24.358;2023-08-17T12:25:28;3.50;;;1.27;;
76073;SDS011;64776;42.636;24.358;2023-08-17T12:28:28;4.25;;;1.50;;
76073;SDS011;64776;42.636;24.358;2023-08-17T12:31:31;5.05;;;1.30;;
76073;SDS011;64776;42.636;24.358;2023-08-17T12:34:32;3.28;;;1.35;;
76073;SDS011;64776;42.636;24.358;2023-08-17T12:37:32;8.88;;;1.60;;
76073;SDS011;64776;42.636;24.358;2023-08-17T12:40:33;5.00;;;1.70;;
76073;SDS011;64776;42.636;24.358;2023-08-17T12:43:34;5.03;;;1.80;;
76073;SDS011;64776;42.636;24.358;2023-08-17T12:46:36;4.63;;;1.52;;
76073;SDS011;64776;42.636;24.358;2023-08-17T12:49:37;5.10;;;1.92;;
76073;SDS011;64776;42.636;24.358;2023-08-17T12:52:38;6.45;;;1.67;;
76073;SDS011;64776;42.636;24.358;2023-08-17T12:55:38;3.95;;;1.30;;
76073;SDS011;64776;42.636;24.358;2023-08-17T12:58:39;7.07;;;2.88;;
76073;SDS011;64776;42.636;24.358;2023-08-17T13:01:41;7.65;;;2.22;;
76073;SDS011;64776;42.636;24.358;2023-08-17T13:04:42;8.98;;;3.30;;
76073;SDS011;64776;42.636;24.358;2023-08-17T13:07:43;23.75;;;11.43;;
76073;SDS011;64776;42.636;24.358;2023-08-17T13:10:44;9.70;;;4.97;;
76073;SDS011;64776;42.636;24.358;2023-08-17T13:13:44;5.85;;;2.22;;
76073;SDS011;64776;42.636;24.358;2023-08-17T13:16:47;4.38;;;1.80;;
76073;SDS011;64776;42.636;24.358;2023-08-17T13:19:47;5.70;;;1.92;;
76073;SDS011;64776;42.636;24.358;2023-08-17T13:22:48;6.60;;;2.33;;
76073;SDS011;64776;42.636;24.358;2023-08-17T13:25:49;5.78;;;2.88;;
76073;SDS011;64776;42.636;24.358;2023-08-17T13:28:50;4.03;;;1.75;;
76073;SDS011;64776;42.636;24.358;2023-08-17T13:31:52;4.10;;;1.58;;
76073;SDS011;64776;42.636;24.358;2023-08-17T13:34:53;4.35;;;1.92;;
76073;SDS011;64776;42.636;24.358;2023-08-17T13:37:54;5.43;;;2.22;;
76073;SDS011;64776;42.636;24.358;2023-08-17T13:40:55;6.22;;;2.25;;
76073;SDS011;64776;42.636;24.358;2023-08-17T13:43:55;6.88;;;2.15;;
76073;SDS011;64776;42.636;24.358;2023-08-17T13:46:57;6.20;;;1.58;;
76073;SDS011;64776;42.636;24.358;2023-08-17T13:49:58;6.25;;;1.65;;
76073;SDS011;64776;42.636;24.358;2023-08-17T13:52:59;10.70;;;2.92;;
76073;SDS011;64776;42.636;24.358;2023-08-17T13:56:00;4.88;;;2.17;;
76073;SDS011;64776;42.636;24.358;2023-08-17T13:59:01;12.57;;;2.35;;
76073;SDS011;64776;42.636;24.358;2023-08-17T14:02:03;7.15;;;2.13;;
76073;SDS011;64776;42.636;24.358;2023-08-17T14:05:04;4.50;;;2.00;;
76073;SDS011;64776;42.636;24.358;2023-08-17T14:08:06;4.75;;;1.90;;
76073;SDS011;64776;42.636;24.358;2023-08-17T14:11:08;7.45;;;2.22;;
76073;SDS011;64776;42.636;24.358;2023-08-17T14:14:08;7.18;;;2.25;;
76073;SDS011;64776;42.636;24.358;2023-08-17T14:17:14;5.32;;;2.10;;
76073;SDS011;64776;42.636;24.358;2023-08-17T14:20:16;6.18;;;2.50;;
76073;SDS011;64776;42.636;24.358;2023-08-17T14:23:17;4.57;;;2.17;;
76073;SDS011;64776;42.636;24.358;2023-08-17T14:26:18;5.63;;;2.35;;
76073;SDS011;64776;42.636;24.358;2023-08-17T14:29:19;6.60;;;2.45;;
76073;SDS011;64776;42.636;24.358;2023-08-17T14:32:21;6.85;;;2.33;;
76073;SDS011;64776;42.636;24.358;2023-08-17T14:35:22;6.10;;;2.72;;
76073;SDS011;64776;42.636;24.358;2023-08-17T14:38:22;6.90;;;3.10;;
76073;SDS011;64776;42.636;24.358;2023-08-17T14:41:23;6.35;;;2.70;;
76073;SDS011;64776;42.636;24.358;2023-08-17T14:44:24;5.63;;;2.10;;
76073;SDS011;64776;42.636;24.358;2023-08-17T14:47:26;5.47;;;2.70;;
76073;SDS011;64776;42.636;24.358;2023-08-17T14:50:27;6.20;;;3.08;;
76073;SDS011;64776;42.636;24.358;2023-08-17T14:53:28;6.80;;;2.65;;
76073;SDS011;64776;42.636;24.358;2023-08-17T14:56:29;7.55;;;3.30;;
76073;SDS011;64776;42.636;24.358;2023-08-17T14:59:29;9.02;;;2.45;;
76073;SDS011;64776;42.636;24.358;2023-08-17T15:02:32;6.63;;;2.85;;
76073;SDS011;64776;42.636;24.358;2023-08-17T15:05:32;5.82;;;2.72;;
76073;SDS011;64776;42.636;24.358;2023-08-17T15:08:33;8.23;;;2.75;;
76073;SDS011;64776;42.636;24.358;2023-08-17T15:11:35;6.38;;;2.85;;
76073;SDS011;64776;42.636;24.358;2023-08-17T15:14:35;7.13;;;3.08;;
76073;SDS011;64776;42.636;24.358;2023-08-17T15:17:38;5.63;;;2.72;;
76073;SDS011;64776;42.636;24.358;2023-08-17T15:20:39;6.95;;;2.72;;
76073;SDS011;64776;42.636;24.358;2023-08-17T15:23:40;9.75;;;3.75;;
76073;SDS011;64776;42.636;24.358;2023-08-17T15:26:41;8.85;;;3.20;;
76073;SDS011;64776;42.636;24.358;2023-08-17T15:29:41;9.05;;;3.35;;
76073;SDS011;64776;42.636;24.358;2023-08-17T15:32:44;6.03;;;2.75;;
76073;SDS011;64776;42.636;24.358;2023-08-17T15:35:45;6.32;;;2.70;;
76073;SDS011;64776;42.636;24.358;2023-08-17T15:38:46;7.28;;;3.00;;
76073;SDS011;64776;42.636;24.358;2023-08-17T15:41:46;7.28;;;3.17;;
76073;SDS011;64776;42.636;24.358;2023-08-17T15:44:47;7.63;;;2.90;;
76073;SDS011;64776;42.636;24.358;2023-08-17T15:47:49;6.82;;;3.17;;
76073;SDS011;64776;42.636;24.358;2023-08-17T15:50:50;6.47;;;2.88;;
76073;SDS011;64776;42.636;24.358;2023-08-17T15:53:51;6.78;;;3.20;;
76073;SDS011;64776;42.636;24.358;2023-08-17T15:56:52;17.35;;;5.22;;
76073;SDS011;64776;42.636;24.358;2023-08-17T15:59:52;7.22;;;2.95;;
76073;SDS011;64776;42.636;24.358;2023-08-17T16:02:55;9.43;;;2.97;;
76073;SDS011;64776;42.636;24.358;2023-08-17T16:05:55;8.90;;;3.38;;
76073;SDS011;64776;42.636;24.358;2023-08-17T16:08:56;10.40;;;3.85;;
76073;SDS011;64776;42.636;24.358;2023-08-17T16:11:57;6.10;;;2.97;;
76073;SDS011;64776;42.636;24.358;2023-08-17T16:14:58;10.60;;;4.50;;
76073;SDS011;64776;42.636;24.358;2023-08-17T16:18:02;8.07;;;3.47;;
76073;SDS011;64776;42.636;24.358;2023-08-17T16:21:03;7.38;;;3.20;;
76073;SDS011;64776;42.636;24.358;2023-08-17T16:24:05;6.65;;;3.08;;
76073;SDS011;64776;42.636;24.358;2023-08-17T16:27:06;6.90;;;2.80;;
76073;SDS011;64776;42.636;24.358;2023-08-17T16:30:07;6.75;;;3.28;;
76073;SDS011;64776;42.636;24.358;2023-08-17T16:33:09;8.82;;;3.75;;
76073;SDS011;64776;42.636;24.358;2023-08-17T16:36:10;6.40;;;3.20;;
76073;SDS011;64776;42.636;24.358;2023-08-17T16:39:12;8.38;;;3.85;;
76073;SDS011;64776;42.636;24.358;2023-08-17T16:42:12;6.38;;;3.15;;
76073;SDS011;64776;42.636;24.358;2023-08-17T16:45:13;6.78;;;3.38;;
76073;SDS011;64776;42.636;24.358;2023-08-17T16:48:15;7.28;;;3.25;;
76073;SDS011;64776;42.636;24.358;2023-08-17T16:51:16;11.10;;;3.60;;
76073;SDS011;64776;42.636;24.358;2023-08-17T16:54:17;6.88;;;3.35;;
76073;SDS011;64776;42.636;24.358;2023-08-17T16:57:18;7.88;;;3.10;;
76073;SDS011;64776;42.636;24.358;2023-08-17T17:00:18;6.43;;;3.28;;
76073;SDS011;64776;42.636;24.358;2023-08-17T17:03:21;7.47;;;3.42;;
76073;SDS011;64776;42.636;24.358;2023-08-17T17:06:21;7.70;;;3.38;;
76073;SDS011;64776;42.636;24.358;2023-08-17T17:09:22;10.85;;;3.92;;
76073;SDS011;64776;42.636;24.358;2023-08-17T17:12:23;6.38;;;3.28;;
76073;SDS011;64776;42.636;24.358;2023-08-17T17:15:24;6.63;;;3.40;;
76073;SDS011;64776;42.636;24.358;2023-08-17T17:18:26;6.38;;;3.30;;
76073;SDS011;64776;42.636;24.358;2023-08-17T17:21:27;6.35;;;2.72;;
76073;SDS011;64776;42.636;24.358;2023-08-17T17:24:28;6.82;;;3.40;;
76073;SDS011;64776;42.636;24.358;2023-08-17T17:27:29;7.70;;;3.45;;
76073;SDS011;64776;42.636;24.358;2023-08-17T17:30:29;7.60;;;3.30;;
76073;SDS011;64776;42.636;24.358;2023-08-17T17:33:31;8.15;;;3.67;;
76073;SDS011;64776;42.636;24.358;2023-08-17T17:36:32;7.88;;;3.55;;
76073;SDS011;64776;42.636;24.358;2023-08-17T17:39:33;6.55;;;3.17;;
76073;SDS011;64776;42.636;24.358;2023-08-17T17:42:34;7.90;;;3.38;;
76073;SDS011;64776;42.636;24.358;2023-08-17T17:45:35;7.43;;;3.00;;
76073;SDS011;64776;42.636;24.358;2023-08-17T17:48:37;7.45;;;3.70;;
76073;SDS011;64776;42.636;24.358;2023-08-17T17:51:38;7.78;;;3.10;;
76073;SDS011;64776;42.636;24.358;2023-08-17T17:54:38;9.70;;;4.32;;
76073;SDS011;64776;42.636;24.358;2023-08-17T17:57:39;11.82;;;4.05;;
76073;SDS011;64776;42.636;24.358;2023-08-17T18:00:40;9.00;;;3.55;;
76073;SDS011;64776;42.636;24.358;2023-08-17T18:03:42;7.70;;;3.20;;